createdAt,value
2023-01-19T00:04:24.583Z,37.24
2023-01-19T00:09:46.481Z,37.63
2023-01-19T00:15:08.779Z,37.52
2023-01-19T00:20:32.939Z,37.68
2023-01-19T00:25:54.799Z,37.24
2023-01-19T00:31:16.648Z,37.42
2023-01-19T00:36:38.384Z,37.13
2023-01-19T00:42:18.997Z,37.45
2023-01-19T00:47:40.853Z,37.58
2023-01-19T00:53:03.443Z,37.67
2023-01-19T00:58:25.341Z,37.57
2023-01-19T01:03:47.059Z,37.25
2023-01-19T01:09:12.193Z,37.29
2023-01-19T01:14:34.056Z,37.27
2023-01-19T01:19:55.790Z,37.37
2023-01-19T01:25:19.889Z,37.25
2023-01-19T01:30:41.592Z,37.65
2023-01-19T01:36:03.952Z,37.32
2023-01-19T01:41:27.457Z,37.43
2023-01-19T01:46:49.302Z,37.59
2023-01-19T01:52:12.053Z,37.08
2023-01-19T01:57:39.063Z,37.59
2023-01-19T02:03:01.272Z,37.30
2023-01-19T02:08:58.439Z,37.31
2023-01-19T02:14:20.407Z,37.50
2023-01-19T02:19:43.812Z,37.29
2023-01-19T02:25:07.159Z,37.21
2023-01-19T02:30:29.135Z,37.13
2023-01-19T02:35:53.751Z,37.04
2023-01-19T02:41:20.809Z,37.28
2023-01-19T02:46:42.495Z,37.01
2023-01-19T02:52:04.744Z,37.34
2023-01-19T02:57:26.373Z,36.97
2023-01-19T03:03:16.069Z,37.20
2023-01-19T03:09:26.664Z,37.40
2023-01-19T03:14:49.207Z,37.12
2023-01-19T03:20:14.140Z,37.17
2023-01-19T03:25:39.808Z,37.43
2023-01-19T03:31:09.860Z,37.08
2023-01-19T03:36:37.513Z,37.07
2023-01-19T03:42:03.314Z,37.33
2023-01-19T03:47:25.707Z,37.09
2023-01-19T03:53:06.481Z,37.46
2023-01-19T03:58:28.604Z,37.40
2023-01-19T04:03:51.839Z,37.19
2023-01-19T04:09:13.737Z,37.30
2023-01-19T04:14:35.495Z,37.32
2023-01-19T04:19:57.215Z,37.25
2023-01-19T04:25:18.944Z,36.87
2023-01-19T04:30:40.689Z,36.97
2023-01-19T04:36:02.518Z,37.24
2023-01-19T04:41:24.187Z,37.21
2023-01-19T04:46:45.877Z,37.02
2023-01-19T04:52:07.657Z,37.15
2023-01-19T04:57:30.469Z,36.84
2023-01-19T05:02:52.416Z,37.17
2023-01-19T05:08:14.346Z,36.71
2023-01-19T05:13:36.520Z,37.07
2023-01-19T05:18:58.382Z,37.23
2023-01-19T05:24:20.358Z,36.93
2023-01-19T05:29:42.309Z,37.00
2023-01-19T05:35:04.242Z,37.03
2023-01-19T05:40:26.197Z,36.75
2023-01-19T05:45:47.947Z,37.00
2023-01-19T05:51:09.800Z,36.76
2023-01-19T05:56:31.724Z,36.71
2023-01-19T06:01:54.221Z,36.89
2023-01-19T06:07:15.962Z,36.84
2023-01-19T06:12:41.695Z,36.74
2023-01-19T06:18:03.503Z,36.99
2023-01-19T06:23:26.317Z,36.62
2023-01-19T06:28:48.768Z,37.14
2023-01-19T06:34:11.113Z,36.85
2023-01-19T06:39:33.293Z,36.88
2023-01-19T06:44:55.023Z,36.75
2023-01-19T06:50:16.881Z,36.77
2023-01-19T06:55:39.339Z,36.70
2023-01-19T07:01:10.745Z,36.71
2023-01-19T07:06:32.582Z,37.03
2023-01-19T07:11:54.865Z,36.67
2023-01-19T07:17:16.702Z,36.67
2023-01-19T07:22:38.415Z,36.72
2023-01-19T07:28:00.324Z,36.70
2023-01-19T07:33:22.754Z,37.14
2023-01-19T07:38:44.488Z,36.85
2023-01-19T07:44:06.242Z,37.05
2023-01-19T07:49:28.126Z,36.94
2023-01-19T07:54:51.098Z,36.66
2023-01-19T08:00:14.614Z,36.71
2023-01-19T08:05:36.473Z,36.75
2023-01-19T08:10:58.616Z,36.92
2023-01-19T08:16:20.421Z,37.03
2023-01-19T08:21:42.118Z,36.87
2023-01-19T08:27:04.166Z,36.68
2023-01-19T08:32:26.048Z,36.61
2023-01-19T08:37:47.792Z,37.00
2023-01-19T08:43:15.712Z,36.97
2023-01-19T08:48:39.745Z,36.67
2023-01-19T08:54:01.770Z,37.04
2023-01-19T08:59:23.494Z,36.67
2023-01-19T09:04:45.198Z,36.11
2023-01-19T09:10:08.147Z,36.30
2023-01-19T09:15:30.794Z,35.69
2023-01-19T09:20:52.517Z,35.87
2023-01-19T09:26:14.259Z,35.68
2023-01-19T09:31:36.018Z,35.52
2023-01-19T09:36:57.847Z,35.21
2023-01-19T09:42:26.935Z,35.19
2023-01-19T09:47:51.042Z,35.17
2023-01-19T09:53:50.709Z,35.09
2023-01-19T09:59:25.302Z,34.62
2023-01-19T10:04:59.322Z,34.92
2023-01-19T10:10:29.064Z,35.11
2023-01-19T10:16:31.718Z,34.98
2023-01-19T10:21:57.999Z,34.93
2023-01-19T10:27:34.405Z,34.75
2023-01-19T10:32:56.276Z,34.76
2023-01-19T10:38:22.418Z,35.06
2023-01-19T10:43:45.776Z,34.90
2023-01-19T10:49:25.589Z,35.10
2023-01-19T10:54:48.712Z,35.12
2023-01-19T11:00:40.778Z,35.16
2023-01-19T11:06:17.686Z,35.17
2023-01-19T11:11:45.518Z,35.06
2023-01-19T11:17:20.062Z,35.20
2023-01-19T11:22:41.799Z,35.23
2023-01-19T11:28:04.207Z,35.17
2023-01-19T11:33:34.951Z,35.18
2023-01-19T11:39:04.953Z,35.20
2023-01-19T11:44:52.551Z,34.84
2023-01-19T11:50:24.731Z,34.85
2023-01-19T11:56:01.671Z,34.89
2023-01-19T12:01:32.704Z,35.08
2023-01-19T12:06:56.125Z,35.22
2023-01-19T12:12:31.076Z,34.72
2023-01-19T12:17:58.684Z,34.49
2023-01-19T12:23:59.266Z,34.13
2023-01-19T12:29:24.209Z,33.94
2023-01-19T12:34:48.170Z,33.79
2023-01-19T12:40:28.038Z,33.66
2023-01-19T12:45:49.923Z,33.80
2023-01-19T12:51:23.670Z,33.71
2023-01-19T12:56:45.646Z,33.70
2023-01-19T13:02:26.813Z,33.60
2023-01-19T13:08:04.969Z,33.74
2023-01-19T13:13:32.009Z,33.90
2023-01-19T13:18:55.998Z,33.67
2023-01-19T13:24:22.537Z,34.06
2023-01-19T13:29:44.662Z,34.04
2023-01-19T13:35:13.359Z,34.23
2023-01-19T13:40:41.146Z,33.96
2023-01-19T13:46:04.333Z,34.22
2023-01-19T13:51:26.128Z,34.33
2023-01-19T13:56:50.322Z,34.13
2023-01-19T14:02:14.025Z,34.03
2023-01-19T14:07:35.769Z,34.42
2023-01-19T14:13:19.154Z,34.63
2023-01-19T14:18:40.901Z,34.58
2023-01-19T14:24:24.078Z,34.39
2023-01-19T14:29:47.677Z,34.48
2023-01-19T14:35:09.656Z,34.47
2023-01-19T14:40:31.923Z,34.17
2023-01-19T14:45:54.677Z,34.65
2023-01-19T14:51:20.698Z,34.57
2023-01-19T14:56:42.423Z,34.22
2023-01-19T15:02:04.258Z,34.34
2023-01-19T15:07:26.164Z,34.27
2023-01-19T15:12:49.390Z,34.03
2023-01-19T15:18:17.419Z,34.51
2023-01-19T15:23:39.146Z,33.81
2023-01-19T15:29:00.826Z,33.12
2023-01-19T15:34:22.548Z,32.85
2023-01-19T15:39:44.340Z,33.06
2023-01-19T15:45:25.246Z,32.88
2023-01-19T15:50:47.949Z,32.73
2023-01-19T15:56:17.553Z,32.95
2023-01-19T16:01:40.649Z,32.66
2023-01-19T16:07:02.519Z,33.20
2023-01-19T16:12:39.733Z,33.05
2023-01-19T16:18:01.524Z,33.23
2023-01-19T16:23:23.256Z,33.28
2023-01-19T16:28:44.937Z,33.65
2023-01-19T16:34:07.427Z,33.29
2023-01-19T16:39:29.139Z,33.88
2023-01-19T16:44:51.083Z,33.63
2023-01-19T16:50:13.143Z,33.23
2023-01-19T16:55:34.963Z,33.29
2023-01-19T17:00:56.755Z,33.66
2023-01-19T17:06:22.894Z,33.61
2023-01-19T17:11:45.365Z,33.52
2023-01-19T17:17:09.507Z,33.55
2023-01-19T17:22:31.178Z,33.78
2023-01-19T17:27:52.891Z,33.82
2023-01-19T17:33:14.632Z,33.51
2023-01-19T17:38:37.125Z,33.72
2023-01-19T17:44:00.321Z,33.36
2023-01-19T17:49:22.120Z,32.73
2023-01-19T17:54:43.860Z,32.21
2023-01-19T18:00:07.744Z,31.74
2023-01-19T18:05:29.467Z,31.53
2023-01-19T18:10:58.473Z,31.54
2023-01-19T18:16:26.029Z,31.12
2023-01-19T18:21:48.563Z,31.21
2023-01-19T18:27:10.842Z,31.47
2023-01-19T18:32:34.912Z,31.34
2023-01-19T18:37:58.664Z,31.90
2023-01-19T18:43:20.367Z,31.78
2023-01-19T18:48:42.157Z,32.36
2023-01-19T18:54:04.050Z,32.48
2023-01-19T18:59:25.847Z,32.22
2023-01-19T19:04:47.533Z,32.74
2023-01-19T19:10:10.037Z,32.99
2023-01-19T19:15:33.132Z,33.33
2023-01-19T19:20:54.880Z,33.12
2023-01-19T19:26:16.612Z,32.85
2023-01-19T19:31:38.385Z,33.08
2023-01-19T19:37:01.308Z,32.80
2023-01-19T19:42:23.678Z,32.65
2023-01-19T19:47:45.556Z,32.13
2023-01-19T19:53:07.285Z,32.03
2023-01-19T19:58:30.723Z,32.40
2023-01-19T20:03:52.661Z,32.05
2023-01-19T20:09:16.282Z,31.76
2023-01-19T20:14:38.084Z,31.81
2023-01-19T20:19:59.794Z,31.92
2023-01-19T20:25:21.540Z,31.76
2023-01-19T20:30:43.351Z,31.56
2023-01-19T20:36:05.629Z,31.78
2023-01-19T20:41:27.690Z,31.62
2023-01-19T20:46:50.274Z,31.86
2023-01-19T20:52:12.061Z,32.29
2023-01-19T20:57:33.833Z,32.89
2023-01-19T21:02:56.678Z,32.46
2023-01-19T21:08:18.529Z,33.08
2023-01-19T21:13:40.421Z,32.95
2023-01-19T21:19:02.524Z,33.52
2023-01-19T21:24:24.235Z,33.48
2023-01-19T21:29:48.239Z,33.18
2023-01-19T21:35:09.992Z,33.40
2023-01-19T21:40:32.219Z,33.99
2023-01-19T21:45:54.006Z,33.79
2023-01-19T21:51:16.272Z,33.67
2023-01-19T21:56:38.436Z,34.02
2023-01-19T22:02:00.326Z,33.86
2023-01-19T22:07:22.157Z,33.88
2023-01-19T22:12:44.064Z,34.22
2023-01-19T22:18:06.120Z,34.03
2023-01-19T22:23:27.840Z,34.44
2023-01-19T22:28:54.015Z,34.32
2023-01-19T22:34:17.333Z,34.55
2023-01-19T22:39:39.021Z,34.83
2023-01-19T22:45:00.699Z,34.82
2023-01-19T22:50:22.429Z,34.90
2023-01-19T22:55:44.231Z,34.45
2023-01-19T23:01:10.875Z,34.87
2023-01-19T23:06:36.377Z,34.79
2023-01-19T23:11:58.881Z,34.81
2023-01-19T23:17:20.612Z,34.88
2023-01-19T23:22:42.276Z,35.08
2023-01-19T23:28:07.230Z,34.79
2023-01-19T23:33:28.993Z,35.14
2023-01-19T23:38:52.964Z,34.97
2023-01-19T23:44:15.158Z,35.11
2023-01-19T23:49:36.951Z,34.94
2023-01-19T23:54:59.107Z,35.05
